Airfield :
LOGIN :

Register | Disclaimer

   EN    FR    IT 

 










Legend :    VFR   Marginal VFR   IFR   Intensive IFR   Very Intensive IFR
Visi :
Ceiling :
>= 8 km
>= 3000ft
5 to 8 km
1000 to 3000 ft
1500m to 5 km
500 to 1000 ft
800 to 1500m
200 to 500 ft
< 800m
< 200 ft
Symbols :   Thunderstorms  Fog  Heavy snow  Heavy precipitations  Wind > 20 kt
SIGMETs :     Misc.  Thunderstorms  Icing  Turbulence  Mountain Waves  Volcanic Ashes






- Airport Elevation : 63 ft
- IATA code : BZM


EHWO - Woensdrecht Airbase

CURRENT METAR :
  • 080825Z AUTO 08003KT 050V140 9999 SCT310 SCT360 17/09 Q1025 BLU 09003KT CAVOK

EXPIRED METARs :
  • 080755Z AUTO 08003KT 050V110 9999 SCT340/// 15/09 Q1025 BLU 09003KT CAVOK
  • 080736Z AUTO 06004KT 9999 OVC350 13/08 Q1025 BLU VRB03KT CAVOK
  • 080656Z AUTO 06003KT 9000 BR BKN093/// OVC330/// 11/08 Q1025 BLU VRB03KT CAVOK
  • 080655Z AUTO 07003KT 9000 BR BKN094 OVC330 11/08 Q1025 BLU
  • 080625Z AUTO 07005KT 9000 BR OVC093 10/08 Q1025 BLU
  • 080555Z AUTO 07003KT 9000 BR BKN093 09/07 Q1025 BLU

TAF TAF EHWO
Valid from the 08 at 05:00 until the 08 at 17:00 UTC


080444Z 0805/0817 08003KT CAVOK
BECMG 0808/0811 VRB01KT
BECMG 0815/0817 29005KT



MET'MAP, your aeronautical weather chart ! - Copyright ORBIFLY December 2007 - Disclaimer

ORBIFLY MET'MAP TEAM :

Programming & Development : Alexandra Zaïnal
Concept & original design : Baudouin d'Aumeries
Assistance for programming : Marc-Olivier Méhu
Technical & hardware support : Manuel Goepfert

Contact : metmap@orbifly.com




SOURCES & CREDITS :

   NOAA